sensor_id;sensor_type;location;lat;lon;timestamp;pressure;altitude;pressure_sealevel;temperature;humidity
47897;BME280;39629;51.400;5.494;2022-08-01T00:03:27;101497.19;;;21.28;99.92
47897;BME280;39629;51.400;5.494;2022-08-01T00:08:30;101494.31;;;21.29;99.14
47897;BME280;39629;51.400;5.494;2022-08-01T00:13:32;101489.56;;;21.16;99.95
47897;BME280;39629;51.400;5.494;2022-08-01T00:18:34;101492.66;;;21.28;99.23
47897;BME280;39629;51.400;5.494;2022-08-01T00:23:38;101497.41;;;21.41;99.65
47897;BME280;39629;51.400;5.494;2022-08-01T00:28:39;101498.91;;;21.21;100.00
47897;BME280;39629;51.400;5.494;2022-08-01T00:33:41;101496.94;;;21.14;99.82
47897;BME280;39629;51.400;5.494;2022-08-01T00:38:44;101495.41;;;21.20;99.57
47897;BME280;39629;51.400;5.494;2022-08-01T00:43:46;101496.81;;;21.31;100.00
47897;BME280;39629;51.400;5.494;2022-08-01T00:48:48;101500.03;;;21.26;100.00
47897;BME280;39629;51.400;5.494;2022-08-01T00:53:51;101499.78;;;21.36;100.00
47897;BME280;39629;51.400;5.494;2022-08-01T00:58:54;101501.41;;;21.22;100.00
47897;BME280;39629;51.400;5.494;2022-08-01T01:03:56;101500.50;;;21.30;100.00
47897;BME280;39629;51.400;5.494;2022-08-01T01:09:15;101498.72;;;21.22;100.00
47897;BME280;39629;51.400;5.494;2022-08-01T01:14:37;101491.13;;;21.11;100.00
47897;BME280;39629;51.400;5.494;2022-08-01T01:19:47;101493.84;;;21.26;100.00
47897;BME280;39629;51.400;5.494;2022-08-01T01:25:03;101490.75;;;21.14;100.00
47897;BME280;39629;51.400;5.494;2022-08-01T01:30:08;101490.88;;;21.21;100.00
47897;BME280;39629;51.400;5.494;2022-08-01T01:35:21;101493.28;;;21.30;100.00
47897;BME280;39629;51.400;5.494;2022-08-01T01:40:24;101492.16;;;21.25;100.00
47897;BME280;39629;51.400;5.494;2022-08-01T01:45:28;101496.31;;;21.04;100.00
47897;BME280;39629;51.400;5.494;2022-08-01T01:50:31;101499.72;;;21.21;100.00
47897;BME280;39629;51.400;5.494;2022-08-01T01:55:35;101501.22;;;21.24;100.00
47897;BME280;39629;51.400;5.494;2022-08-01T02:00:40;101493.44;;;21.37;100.00
47897;BME280;39629;51.400;5.494;2022-08-01T02:05:43;101486.53;;;21.20;100.00
47897;BME280;39629;51.400;5.494;2022-08-01T02:10:46;101496.81;;;21.31;100.00
47897;BME280;39629;51.400;5.494;2022-08-01T02:16:04;101497.47;;;21.33;100.00
47897;BME280;39629;51.400;5.494;2022-08-01T02:21:09;101490.72;;;21.22;99.52
47897;BME280;39629;51.400;5.494;2022-08-01T02:26:15;101494.78;;;21.33;99.79
47897;BME280;39629;51.400;5.494;2022-08-01T02:31:21;101495.03;;;21.46;99.32
47897;BME280;39629;51.400;5.494;2022-08-01T02:36:26;101491.41;;;21.39;97.98
47897;BME280;39629;51.400;5.494;2022-08-01T02:41:30;101485.06;;;21.17;100.00
47897;BME280;39629;51.400;5.494;2022-08-01T02:46:36;101489.94;;;21.13;100.00
47897;BME280;39629;51.400;5.494;2022-08-01T02:51:39;101489.63;;;21.31;99.40
47897;BME280;39629;51.400;5.494;2022-08-01T02:56:42;101483.97;;;21.26;100.00
47897;BME280;39629;51.400;5.494;2022-08-01T03:01:47;101495.28;;;21.36;99.50
47897;BME280;39629;51.400;5.494;2022-08-01T03:06:49;101487.06;;;21.15;100.00
47897;BME280;39629;51.400;5.494;2022-08-01T03:11:52;101488.84;;;21.23;100.00
47897;BME280;39629;51.400;5.494;2022-08-01T03:16:57;101493.78;;;21.11;100.00
47897;BME280;39629;51.400;5.494;2022-08-01T03:22:01;101496.88;;;21.23;100.00
47897;BME280;39629;51.400;5.494;2022-08-01T03:27:04;101495.34;;;21.28;100.00
47897;BME280;39629;51.400;5.494;2022-08-01T03:32:09;101501.97;;;21.32;100.00
47897;BME280;39629;51.400;5.494;2022-08-01T03:37:15;101495.19;;;21.22;100.00
47897;BME280;39629;51.400;5.494;2022-08-01T03:42:20;101506.66;;;21.07;100.00
47897;BME280;39629;51.400;5.494;2022-08-01T03:47:30;101500.44;;;21.15;100.00
47897;BME280;39629;51.400;5.494;2022-08-01T03:52:33;101507.53;;;21.00;100.00
47897;BME280;39629;51.400;5.494;2022-08-01T03:57:36;101499.31;;;21.09;99.79
47897;BME280;39629;51.400;5.494;2022-08-01T04:02:40;101495.34;;;20.97;99.57
47897;BME280;39629;51.400;5.494;2022-08-01T04:07:46;101492.66;;;20.74;99.70
47897;BME280;39629;51.400;5.494;2022-08-01T04:12:48;101495.88;;;20.92;98.62
47897;BME280;39629;51.400;5.494;2022-08-01T04:17:51;101501.63;;;20.81;99.10
47897;BME280;39629;51.400;5.494;2022-08-01T04:22:54;101511.38;;;21.05;98.16
47897;BME280;39629;51.400;5.494;2022-08-01T04:27:56;101507.34;;;21.01;97.26
47897;BME280;39629;51.400;5.494;2022-08-01T04:33:01;101508.41;;;20.61;98.34
47897;BME280;39629;51.400;5.494;2022-08-01T04:38:03;101506.75;;;20.91;97.99
47897;BME280;39629;51.400;5.494;2022-08-01T04:43:05;101516.84;;;21.12;96.56
47897;BME280;39629;51.400;5.494;2022-08-01T04:48:09;101526.91;;;21.02;97.58
47897;BME280;39629;51.400;5.494;2022-08-01T04:53:13;101534.44;;;21.06;97.52
47897;BME280;39629;51.400;5.494;2022-08-01T04:58:17;101542.53;;;21.21;96.51
47897;BME280;39629;51.400;5.494;2022-08-01T05:03:20;101538.88;;;20.91;98.95
47897;BME280;39629;51.400;5.494;2022-08-01T05:08:22;101547.16;;;20.96;98.84
47897;BME280;39629;51.400;5.494;2022-08-01T05:13:23;101546.44;;;21.10;97.44
47897;BME280;39629;51.400;5.494;2022-08-01T05:18:27;101551.53;;;21.05;96.84
47897;BME280;39629;51.400;5.494;2022-08-01T05:23:29;101547.41;;;20.86;98.10
47897;BME280;39629;51.400;5.494;2022-08-01T05:28:30;101554.06;;;20.90;97.91
47897;BME280;39629;51.400;5.494;2022-08-01T05:33:33;101560.84;;;20.70;99.36
47897;BME280;39629;51.400;5.494;2022-08-01T05:38:35;101568.25;;;20.99;97.53
47897;BME280;39629;51.400;5.494;2022-08-01T05:43:36;101559.94;;;20.86;97.21
47897;BME280;39629;51.400;5.494;2022-08-01T05:48:39;101565.09;;;20.87;96.27
47897;BME280;39629;51.400;5.494;2022-08-01T05:53:41;101562.38;;;21.04;96.54
47897;BME280;39629;51.400;5.494;2022-08-01T05:58:43;101563.66;;;21.85;92.97
47897;BME280;39629;51.400;5.494;2022-08-01T06:03:46;101560.13;;;22.52;91.45
47897;BME280;39629;51.400;5.494;2022-08-01T06:08:48;101547.25;;;22.92;87.91
47897;BME280;39629;51.400;5.494;2022-08-01T06:13:50;101560.44;;;22.72;86.53
47897;BME280;39629;51.400;5.494;2022-08-01T06:18:53;101555.44;;;22.39;86.74
47897;BME280;39629;51.400;5.494;2022-08-01T06:23:55;101545.16;;;22.58;87.53
47897;BME280;39629;51.400;5.494;2022-08-01T06:28:56;101546.00;;;22.43;89.42
47897;BME280;39629;51.400;5.494;2022-08-01T06:33:59;101551.63;;;22.63;86.01
47897;BME280;39629;51.400;5.494;2022-08-01T06:39:01;101560.81;;;23.42;83.26
47897;BME280;39629;51.400;5.494;2022-08-01T06:44:03;101568.94;;;23.12;83.51
47897;BME280;39629;51.400;5.494;2022-08-01T06:49:06;101575.69;;;22.57;85.30
47897;BME280;39629;51.400;5.494;2022-08-01T06:54:07;101578.09;;;22.37;85.00
47897;BME280;39629;51.400;5.494;2022-08-01T06:59:09;101584.94;;;22.54;84.36
47897;BME280;39629;51.400;5.494;2022-08-01T07:04:12;101587.78;;;22.23;85.07
47897;BME280;39629;51.400;5.494;2022-08-01T07:09:14;101585.66;;;23.07;82.67
47897;BME280;39629;51.400;5.494;2022-08-01T07:14:15;101589.19;;;22.93;82.40
47897;BME280;39629;51.400;5.494;2022-08-01T07:19:18;101581.72;;;23.25;82.64
47897;BME280;39629;51.400;5.494;2022-08-01T07:24:21;101583.13;;;23.42;79.93
47897;BME280;39629;51.400;5.494;2022-08-01T07:29:23;101590.38;;;23.63;78.54
47897;BME280;39629;51.400;5.494;2022-08-01T07:34:26;101594.38;;;22.80;79.79
47897;BME280;39629;51.400;5.494;2022-08-01T07:39:29;101590.72;;;23.53;78.26
47897;BME280;39629;51.400;5.494;2022-08-01T07:44:30;101594.38;;;23.31;78.60
47897;BME280;39629;51.400;5.494;2022-08-01T07:49:34;101602.28;;;23.75;77.65
47897;BME280;39629;51.400;5.494;2022-08-01T07:54:36;101607.63;;;24.46;73.40
47897;BME280;39629;51.400;5.494;2022-08-01T07:59:37;101601.69;;;23.80;75.73
47897;BME280;39629;51.400;5.494;2022-08-01T08:04:40;101600.31;;;24.40;74.01
47897;BME280;39629;51.400;5.494;2022-08-01T08:09:42;101611.88;;;23.84;75.22
47897;BME280;39629;51.400;5.494;2022-08-01T08:14:43;101616.41;;;24.68;72.42
47897;BME280;39629;51.400;5.494;2022-08-01T08:19:46;101618.25;;;26.24;69.01
47897;BME280;39629;51.400;5.494;2022-08-01T08:24:48;101619.09;;;25.78;65.10
47897;BME280;39629;51.400;5.494;2022-08-01T08:29:50;101618.06;;;26.12;64.53
47897;BME280;39629;51.400;5.494;2022-08-01T08:34:53;101612.25;;;25.82;64.82
47897;BME280;39629;51.400;5.494;2022-08-01T08:39:54;101619.78;;;25.18;67.37
47897;BME280;39629;51.400;5.494;2022-08-01T08:44:56;101614.25;;;25.47;64.69
47897;BME280;39629;51.400;5.494;2022-08-01T08:49:59;101612.63;;;26.25;64.74
47897;BME280;39629;51.400;5.494;2022-08-01T08:55:03;101608.00;;;27.62;62.46
47897;BME280;39629;51.400;5.494;2022-08-01T09:00:06;101618.06;;;27.80;57.52
47897;BME280;39629;51.400;5.494;2022-08-01T09:05:11;101616.41;;;28.29;56.39
47897;BME280;39629;51.400;5.494;2022-08-01T09:10:13;101609.28;;;28.10;56.05
47897;BME280;39629;51.400;5.494;2022-08-01T09:15:15;101623.78;;;27.59;56.34
47897;BME280;39629;51.400;5.494;2022-08-01T09:20:23;101635.56;;;26.88;56.98
47897;BME280;39629;51.400;5.494;2022-08-01T09:25:25;101630.59;;;28.00;54.13
47897;BME280;39629;51.400;5.494;2022-08-01T09:30:38;101626.97;;;29.11;51.35
47897;BME280;39629;51.400;5.494;2022-08-01T09:35:41;101636.97;;;28.56;52.26
47897;BME280;39629;51.400;5.494;2022-08-01T09:40:50;101632.47;;;30.19;50.19
47897;BME280;39629;51.400;5.494;2022-08-01T09:45:52;101641.16;;;30.68;48.17
47897;BME280;39629;51.400;5.494;2022-08-01T09:50:57;101625.94;;;30.43;49.32
47897;BME280;39629;51.400;5.494;2022-08-01T09:56:08;101624.88;;;30.33;46.88
47897;BME280;39629;51.400;5.494;2022-08-01T10:01:11;101626.44;;;30.28;46.52
47897;BME280;39629;51.400;5.494;2022-08-01T10:06:20;101633.69;;;29.39;47.13
47897;BME280;39629;51.400;5.494;2022-08-01T10:11:23;101628.13;;;29.76;49.84
47897;BME280;39629;51.400;5.494;2022-08-01T10:16:25;101626.19;;;31.06;47.93
47897;BME280;39629;51.400;5.494;2022-08-01T10:21:32;101639.84;;;30.70;43.50
47897;BME280;39629;51.400;5.494;2022-08-01T10:26:34;101620.78;;;30.30;45.73
47897;BME280;39629;51.400;5.494;2022-08-01T10:31:37;101622.91;;;29.02;48.89
47897;BME280;39629;51.400;5.494;2022-08-01T10:36:41;101630.03;;;28.41;48.42
47897;BME280;39629;51.400;5.494;2022-08-01T10:41:42;101622.00;;;29.08;49.20
47897;BME280;39629;51.400;5.494;2022-08-01T10:46:47;101617.63;;;28.52;48.33
47897;BME280;39629;51.400;5.494;2022-08-01T10:51:51;101624.03;;;30.67;45.01
47897;BME280;39629;51.400;5.494;2022-08-01T10:56:53;101611.81;;;29.22;46.86
47897;BME280;39629;51.400;5.494;2022-08-01T11:01:57;101609.94;;;28.67;48.10
47897;BME280;39629;51.400;5.494;2022-08-01T11:07:05;101616.69;;;27.64;52.63
47897;BME280;39629;51.400;5.494;2022-08-01T11:12:09;101624.69;;;28.35;50.51
47897;BME280;39629;51.400;5.494;2022-08-01T11:17:29;101627.22;;;27.79;53.58
47897;BME280;39629;51.400;5.494;2022-08-01T11:28:27;101636.84;;;27.37;55.77
47897;BME280;39629;51.400;5.494;2022-08-01T11:33:48;101642.75;;;25.96;59.13
47897;BME280;39629;51.400;5.494;2022-08-01T11:39:10;101661.94;;;27.06;59.49
47897;BME280;39629;51.400;5.494;2022-08-01T11:44:16;101659.13;;;26.47;60.46
47897;BME280;39629;51.400;5.494;2022-08-01T11:49:23;101660.72;;;26.88;59.72
47897;BME280;39629;51.400;5.494;2022-08-01T11:54:27;101666.81;;;26.17;60.02
47897;BME280;39629;51.400;5.494;2022-08-01T11:59:38;101679.91;;;27.70;56.76
47897;BME280;39629;51.400;5.494;2022-08-01T12:04:48;101679.28;;;26.45;58.17
47897;BME280;39629;51.400;5.494;2022-08-01T12:09:58;101688.28;;;25.57;60.20
47897;BME280;39629;51.400;5.494;2022-08-01T12:15:04;101683.97;;;25.70;61.38
47897;BME280;39629;51.400;5.494;2022-08-01T12:20:08;101680.50;;;25.28;60.41
47897;BME280;39629;51.400;5.494;2022-08-01T12:25:12;101682.25;;;25.55;61.28
47897;BME280;39629;51.400;5.494;2022-08-01T12:30:17;101682.75;;;26.79;57.05
47897;BME280;39629;51.400;5.494;2022-08-01T12:35:20;101684.25;;;25.33;59.13
47897;BME280;39629;51.400;5.494;2022-08-01T12:40:25;101683.41;;;26.61;57.55
47897;BME280;39629;51.400;5.494;2022-08-01T12:45:31;101693.09;;;27.02;53.80
47897;BME280;39629;51.400;5.494;2022-08-01T12:50:36;101684.25;;;26.61;57.54
47897;BME280;39629;51.400;5.494;2022-08-01T12:55:44;101684.56;;;27.50;54.24
47897;BME280;39629;51.400;5.494;2022-08-01T13:00:48;101679.22;;;25.72;56.68
47897;BME280;39629;51.400;5.494;2022-08-01T13:05:52;101683.91;;;27.16;53.89
47897;BME280;39629;51.400;5.494;2022-08-01T13:11:00;101681.88;;;27.88;50.15
47897;BME280;39629;51.400;5.494;2022-08-01T13:16:05;101683.63;;;26.66;51.34
47897;BME280;39629;51.400;5.494;2022-08-01T13:21:11;101672.84;;;27.69;49.97
47897;BME280;39629;51.400;5.494;2022-08-01T13:26:13;101675.63;;;27.04;49.25
47897;BME280;39629;51.400;5.494;2022-08-01T13:31:16;101667.63;;;26.24;51.85
47897;BME280;39629;51.400;5.494;2022-08-01T13:36:17;101677.03;;;27.20;49.08
47897;BME280;39629;51.400;5.494;2022-08-01T13:41:19;101682.28;;;27.08;51.99
47897;BME280;39629;51.400;5.494;2022-08-01T13:46:22;101679.47;;;26.50;53.89
47897;BME280;39629;51.400;5.494;2022-08-01T13:51:24;101674.03;;;26.77;53.43
47897;BME280;39629;51.400;5.494;2022-08-01T13:56:26;101678.06;;;27.26;53.38
47897;BME280;39629;51.400;5.494;2022-08-01T14:01:30;101670.28;;;27.36;52.25
47897;BME280;39629;51.400;5.494;2022-08-01T14:06:32;101675.53;;;26.66;51.39
47897;BME280;39629;51.400;5.494;2022-08-01T14:11:35;101671.09;;;26.91;50.50
47897;BME280;39629;51.400;5.494;2022-08-01T14:16:38;101671.56;;;26.68;51.11
47897;BME280;39629;51.400;5.494;2022-08-01T14:21:39;101675.22;;;27.07;49.96
47897;BME280;39629;51.400;5.494;2022-08-01T14:26:41;101664.44;;;27.46;49.14
47897;BME280;39629;51.400;5.494;2022-08-01T14:31:44;101670.34;;;27.29;47.22
47897;BME280;39629;51.400;5.494;2022-08-01T14:36:46;101665.69;;;27.43;46.93
47897;BME280;39629;51.400;5.494;2022-08-01T14:41:47;101658.31;;;26.20;48.63
47897;BME280;39629;51.400;5.494;2022-08-01T14:46:50;101659.19;;;28.14;48.18
47897;BME280;39629;51.400;5.494;2022-08-01T14:51:52;101656.78;;;27.42;46.26
47897;BME280;39629;51.400;5.494;2022-08-01T14:56:53;101661.63;;;27.27;46.78
47897;BME280;39629;51.400;5.494;2022-08-01T15:01:56;101664.34;;;27.21;47.39
47897;BME280;39629;51.400;5.494;2022-08-01T15:06:58;101660.72;;;27.78;45.02
47897;BME280;39629;51.400;5.494;2022-08-01T15:11:59;101661.41;;;27.29;45.09
47897;BME280;39629;51.400;5.494;2022-08-01T15:17:02;101664.88;;;27.81;44.79
47897;BME280;39629;51.400;5.494;2022-08-01T15:22:04;101662.84;;;27.31;46.69
47897;BME280;39629;51.400;5.494;2022-08-01T15:27:06;101652.50;;;27.60;47.31
47897;BME280;39629;51.400;5.494;2022-08-01T15:32:09;101665.06;;;27.03;47.06
47897;BME280;39629;51.400;5.494;2022-08-01T15:37:11;101662.22;;;27.29;46.14
47897;BME280;39629;51.400;5.494;2022-08-01T15:42:14;101672.56;;;27.46;46.55
47897;BME280;39629;51.400;5.494;2022-08-01T15:47:18;101677.13;;;26.87;44.33
47897;BME280;39629;51.400;5.494;2022-08-01T15:52:19;101674.03;;;26.70;44.51
47897;BME280;39629;51.400;5.494;2022-08-01T15:57:21;101680.44;;;26.82;45.54
47897;BME280;39629;51.400;5.494;2022-08-01T16:02:24;101679.00;;;26.86;45.83
47897;BME280;39629;51.400;5.494;2022-08-01T16:07:25;101679.38;;;25.63;47.95
47897;BME280;39629;51.400;5.494;2022-08-01T16:12:27;101674.50;;;26.34;45.87
47897;BME280;39629;51.400;5.494;2022-08-01T16:17:30;101671.97;;;25.79;46.32
47897;BME280;39629;51.400;5.494;2022-08-01T16:22:32;101665.78;;;26.12;47.86
47897;BME280;39629;51.400;5.494;2022-08-01T16:27:34;101678.22;;;26.26;47.14
47897;BME280;39629;51.400;5.494;2022-08-01T16:32:37;101675.13;;;25.34;48.61
47897;BME280;39629;51.400;5.494;2022-08-01T16:37:38;101661.41;;;26.30;47.55
47897;BME280;39629;51.400;5.494;2022-08-01T16:42:40;101664.94;;;26.04;46.26
47897;BME280;39629;51.400;5.494;2022-08-01T16:47:43;101651.03;;;26.47;48.62
47897;BME280;39629;51.400;5.494;2022-08-01T16:52:44;101662.06;;;26.26;47.44
47897;BME280;39629;51.400;5.494;2022-08-01T16:57:46;101650.63;;;25.91;48.06
47897;BME280;39629;51.400;5.494;2022-08-01T17:02:49;101663.53;;;25.27;48.99
47897;BME280;39629;51.400;5.494;2022-08-01T17:07:51;101660.66;;;25.42;48.89
47897;BME280;39629;51.400;5.494;2022-08-01T17:12:52;101659.00;;;25.41;49.50
47897;BME280;39629;51.400;5.494;2022-08-01T17:17:55;101662.00;;;25.66;47.70
47897;BME280;39629;51.400;5.494;2022-08-01T17:22:57;101661.41;;;25.16;50.37
47897;BME280;39629;51.400;5.494;2022-08-01T17:27:58;101668.00;;;25.07;50.02
47897;BME280;39629;51.400;5.494;2022-08-01T17:33:01;101672.19;;;24.81;50.02
47897;BME280;39629;51.400;5.494;2022-08-01T17:38:03;101665.63;;;25.32;48.99
47897;BME280;39629;51.400;5.494;2022-08-01T17:43:05;101680.81;;;25.05;49.34
47897;BME280;39629;51.400;5.494;2022-08-01T17:48:08;101671.69;;;24.99;49.97
47897;BME280;39629;51.400;5.494;2022-08-01T17:53:15;101674.56;;;24.98;50.22
47897;BME280;39629;51.400;5.494;2022-08-01T17:58:17;101679.34;;;24.95;48.88
47897;BME280;39629;51.400;5.494;2022-08-01T18:03:20;101679.31;;;24.33;49.07
47897;BME280;39629;51.400;5.494;2022-08-01T18:08:21;101686.97;;;24.36;48.58
47897;BME280;39629;51.400;5.494;2022-08-01T18:13:23;101680.91;;;24.05;48.87
47897;BME280;39629;51.400;5.494;2022-08-01T18:18:26;101689.03;;;24.34;48.63
47897;BME280;39629;51.400;5.494;2022-08-01T18:23:28;101687.75;;;23.87;47.67
47897;BME280;39629;51.400;5.494;2022-08-01T18:28:29;101690.19;;;23.81;46.75
47897;BME280;39629;51.400;5.494;2022-08-01T18:33:33;101702.53;;;24.19;47.05
47897;BME280;39629;51.400;5.494;2022-08-01T18:38:35;101708.13;;;23.59;45.94
47897;BME280;39629;51.400;5.494;2022-08-01T18:43:36;101702.78;;;23.45;46.38
47897;BME280;39629;51.400;5.494;2022-08-01T18:48:39;101708.13;;;23.59;47.45
47897;BME280;39629;51.400;5.494;2022-08-01T18:53:41;101710.47;;;23.48;47.35
47897;BME280;39629;51.400;5.494;2022-08-01T18:58:43;101712.81;;;22.91;47.39
47897;BME280;39629;51.400;5.494;2022-08-01T19:03:46;101713.19;;;22.88;48.15
47897;BME280;39629;51.400;5.494;2022-08-01T19:08:48;101716.69;;;22.89;48.87
47897;BME280;39629;51.400;5.494;2022-08-01T19:13:49;101718.75;;;22.64;50.25
47897;BME280;39629;51.400;5.494;2022-08-01T19:18:53;101704.31;;;22.50;50.28
47897;BME280;39629;51.400;5.494;2022-08-01T19:23:54;101713.66;;;22.16;50.36
47897;BME280;39629;51.400;5.494;2022-08-01T19:29:16;101718.53;;;21.81;51.00
47897;BME280;39629;51.400;5.494;2022-08-01T19:34:21;101730.41;;;21.87;52.69
47897;BME280;39629;51.400;5.494;2022-08-01T19:39:24;101738.53;;;21.71;51.36
47897;BME280;39629;51.400;5.494;2022-08-01T19:44:27;101745.91;;;21.69;51.90
47897;BME280;39629;51.400;5.494;2022-08-01T19:49:30;101753.88;;;21.46;54.08
47897;BME280;39629;51.400;5.494;2022-08-01T19:54:33;101761.97;;;21.29;56.10
47897;BME280;39629;51.400;5.494;2022-08-01T19:59:35;101764.38;;;21.00;57.40
47897;BME280;39629;51.400;5.494;2022-08-01T20:04:38;101763.22;;;20.78;58.58
47897;BME280;39629;51.400;5.494;2022-08-01T20:09:45;101753.22;;;20.55;58.99
47897;BME280;39629;51.400;5.494;2022-08-01T20:14:50;101757.72;;;20.30;61.10
47897;BME280;39629;51.400;5.494;2022-08-01T20:19:54;101754.53;;;20.18;60.48
47897;BME280;39629;51.400;5.494;2022-08-01T20:24:57;101752.78;;;19.93;62.24
47897;BME280;39629;51.400;5.494;2022-08-01T20:29:59;101764.59;;;19.74;62.79
47897;BME280;39629;51.400;5.494;2022-08-01T20:35:03;101767.88;;;18.99;65.52
47897;BME280;39629;51.400;5.494;2022-08-01T20:40:07;101764.03;;;18.32;69.62
47897;BME280;39629;51.400;5.494;2022-08-01T20:45:11;101762.78;;;18.62;69.10
47897;BME280;39629;51.400;5.494;2022-08-01T20:50:16;101766.69;;;18.50;69.95
47897;BME280;39629;51.400;5.494;2022-08-01T20:55:44;101764.34;;;18.46;70.56
47897;BME280;39629;51.400;5.494;2022-08-01T21:00:49;101762.41;;;18.21;69.60
47897;BME280;39629;51.400;5.494;2022-08-01T21:06:00;101771.53;;;18.18;69.30
47897;BME280;39629;51.400;5.494;2022-08-01T21:11:10;101773.31;;;18.00;70.81
47897;BME280;39629;51.400;5.494;2022-08-01T21:16:16;101771.56;;;17.91;71.31
47897;BME280;39629;51.400;5.494;2022-08-01T21:21:25;101783.19;;;17.72;73.82
47897;BME280;39629;51.400;5.494;2022-08-01T21:26:27;101785.69;;;17.73;74.04
47897;BME280;39629;51.400;5.494;2022-08-01T21:31:31;101789.16;;;16.99;73.80
47897;BME280;39629;51.400;5.494;2022-08-01T21:36:35;101782.50;;;17.23;74.41
47897;BME280;39629;51.400;5.494;2022-08-01T21:41:37;101780.09;;;16.82;75.51
47897;BME280;39629;51.400;5.494;2022-08-01T21:46:39;101781.84;;;17.11;75.23
47897;BME280;39629;51.400;5.494;2022-08-01T21:51:46;101789.25;;;17.27;76.09
47897;BME280;39629;51.400;5.494;2022-08-01T21:56:57;101785.75;;;17.17;75.35
47897;BME280;39629;51.400;5.494;2022-08-01T22:02:03;101777.13;;;16.95;75.55
47897;BME280;39629;51.400;5.494;2022-08-01T22:07:11;101772.72;;;16.47;76.25
47897;BME280;39629;51.400;5.494;2022-08-01T22:12:14;101763.69;;;16.09;78.27
47897;BME280;39629;51.400;5.494;2022-08-01T22:17:19;101773.53;;;16.28;78.49
47897;BME280;39629;51.400;5.494;2022-08-01T22:22:24;101777.31;;;16.45;77.79
47897;BME280;39629;51.400;5.494;2022-08-01T22:27:26;101777.59;;;16.42;80.25
47897;BME280;39629;51.400;5.494;2022-08-01T22:32:30;101776.59;;;16.23;79.43
47897;BME280;39629;51.400;5.494;2022-08-01T22:37:33;101783.31;;;15.37;81.76
47897;BME280;39629;51.400;5.494;2022-08-01T22:42:38;101775.75;;;15.32;83.13
47897;BME280;39629;51.400;5.494;2022-08-01T22:47:49;101775.66;;;15.74;82.10
47897;BME280;39629;51.400;5.494;2022-08-01T22:53:04;101766.00;;;15.02;84.14
47897;BME280;39629;51.400;5.494;2022-08-01T22:58:10;101754.50;;;15.23;82.30
47897;BME280;39629;51.400;5.494;2022-08-01T23:03:19;101749.56;;;15.08;82.26
47897;BME280;39629;51.400;5.494;2022-08-01T23:08:25;101759.81;;;14.60;85.08
47897;BME280;39629;51.400;5.494;2022-08-01T23:13:28;101766.72;;;15.04;82.49
47897;BME280;39629;51.400;5.494;2022-08-01T23:18:30;101760.84;;;15.31;83.51
47897;BME280;39629;51.400;5.494;2022-08-01T23:23:33;101771.22;;;15.44;83.43
47897;BME280;39629;51.400;5.494;2022-08-01T23:28:35;101769.78;;;15.40;82.18
47897;BME280;39629;51.400;5.494;2022-08-01T23:33:37;101757.09;;;15.44;82.53
47897;BME280;39629;51.400;5.494;2022-08-01T23:38:40;101755.13;;;14.84;83.54
47897;BME280;39629;51.400;5.494;2022-08-01T23:43:42;101737.97;;;14.26;87.59
47897;BME280;39629;51.400;5.494;2022-08-01T23:48:44;101734.25;;;14.17;86.53
47897;BME280;39629;51.400;5.494;2022-08-01T23:53:47;101738.50;;;14.82;83.15
47897;BME280;39629;51.400;5.494;2022-08-01T23:58:48;101738.50;;;15.24;82.67
